Time,TemperatureF,DewpointF,PressureIn,WindDirection,WindDirectionDegrees,WindSpeedMPH,WindSpeedGustMPH,Humidity,HourlyPrecipIn,Conditions,Clouds,dailyrainin,SoftwareType,DateUTC
2013-03-19 00:00:00,30.4,0.4,30.16,WSW,258,6.0,6.0,27,0.00,,OVC020,0.00,VWS V12.08,2013-03-19 04:00:00,
2013-03-19 00:05:00,30.5,0.5,30.16,SW,226,4.0,10.0,27,0.00,,OVC020,0.00,VWS V12.08,2013-03-19 04:05:00,
2013-03-19 00:10:00,30.5,1.3,30.16,WSW,251,3.0,5.0,28,0.00,,OVC020,0.00,VWS V12.08,2013-03-19 04:10:00,
2013-03-19 00:15:00,30.4,0.4,30.14,WNW,301,6.0,7.0,27,0.00,,OVC020,0.00,VWS V12.08,2013-03-19 04:15:00,
2013-03-19 00:20:00,30.4,1.2,30.14,South,186,1.0,2.0,28,0.00,,OVC020,0.00,VWS V12.08,2013-03-19 04:20:00,
2013-03-19 00:25:00,30.4,0.4,30.14,SSW,203,1.0,7.0,27,0.00,,OVC020,0.00,VWS V12.08,2013-03-19 04:25:00,
2013-03-19 00:30:00,30.4,1.2,30.14,SSW,208,5.0,5.0,28,0.00,,OVC020,0.00,VWS V12.08,2013-03-19 04:30:00,
2013-03-19 00:36:00,30.4,2.0,30.14,SW,230,3.0,10.0,29,0.00,,OVC020,0.00,VWS V12.08,2013-03-19 04:36:00,
2013-03-19 00:40:00,30.4,2.7,30.14,West,264,2.0,10.0,30,0.00,,OVC047,0.00,VWS V12.08,2013-03-19 04:40:00,
2013-03-19 00:41:00,30.4,2.7,30.14,SSW,213,1.0,7.0,30,0.00,,OVC020,0.00,VWS V12.08,2013-03-19 04:41:00,
2013-03-19 00:46:00,30.2,5.2,30.13,WSW,251,6.0,11.0,34,0.00,,OVC020,0.00,VWS V12.08,2013-03-19 04:46:00,
2013-03-19 00:50:00,30.1,5.8,30.13,SW,223,7.0,19.0,35,0.00,,OVC047,0.00,VWS V12.08,2013-03-19 04:50:00,
2013-03-19 00:51:00,29.9,6.2,30.13,SSW,209,2.0,7.0,36,0.00,,OVC020,0.00,VWS V12.08,2013-03-19 04:51:00,
2013-03-19 00:56:00,29.8,6.7,30.13,SSE,155,6.0,11.0,37,0.00,,OVC020,0.00,VWS V12.08,2013-03-19 04:56:00,
2013-03-19 01:00:00,29.8,7.3,30.12,WSW,239,8.0,8.0,38,0.00,,OVC047,0.00,VWS V12.08,2013-03-19 05:00:00,
2013-03-19 01:01:00,29.6,7.7,30.12,SW,216,1.0,7.0,39,0.00,,OVC020,0.00,VWS V12.08,2013-03-19 05:01:00,
2013-03-19 01:07:00,29.3,11.1,30.12,SSE,157,7.0,12.0,46,0.00,,OVC020,0.00,VWS V12.08,2013-03-19 05:07:00,
2013-03-19 01:10:00,29.2,11.0,30.12,SSW,209,2.0,8.0,46,0.00,,OVC047,0.00,VWS V12.08,2013-03-19 05:10:00,
2013-03-19 01:13:00,28.9,13.5,30.12,WSW,239,5.0,14.0,52,0.00,,OVC020,0.00,VWS V12.08,2013-03-19 05:13:00,
2013-03-19 01:18:00,28.1,16.0,30.12,WNW,298,1.0,10.0,60,0.00,,OVC020,0.00,VWS V12.08,2013-03-19 05:18:00,
2013-03-19 01:20:00,28.0,16.3,30.12,WSW,247,5.0,11.0,61,0.00,,OVC047,0.00,VWS V12.08,2013-03-19 05:20:00,
2013-03-19 01:23:00,27.5,16.6,30.12,SW,234,0.0,10.0,63,0.00,,OVC020,0.00,VWS V12.08,2013-03-19 05:23:00,
2013-03-19 01:28:00,27.3,17.5,30.11,ESE,103,5.0,12.0,66,0.00,,OVC020,0.00,VWS V12.08,2013-03-19 05:28:00,
2013-03-19 01:30:00,27.1,17.3,30.11,SSW,200,3.0,9.0,66,0.00,,OVC047,0.00,VWS V12.08,2013-03-19 05:30:00,
2013-03-19 01:33:00,26.8,18.0,30.11,WSW,257,6.0,8.0,69,0.00,,OVC020,0.00,VWS V12.08,2013-03-19 05:33:00,
2013-03-19 01:38:00,26.5,18.4,30.11,SSW,196,6.0,10.0,71,0.00,,OVC020,0.00,VWS V12.08,2013-03-19 05:38:00,
2013-03-19 01:40:00,26.4,18.3,30.11,SW,217,5.0,7.0,71,0.00,,OVC047,0.00,VWS V12.08,2013-03-19 05:40:00,
2013-03-19 01:43:00,26.2,18.4,30.11,WSW,256,4.0,10.0,72,0.00,,OVC020,0.00,VWS V12.08,2013-03-19 05:43:00,
2013-03-19 01:48:00,26.1,19.0,30.11,SW,227,12.0,14.0,74,0.00,,OVC020,0.00,VWS V12.08,2013-03-19 05:48:00,
2013-03-19 01:50:00,26.1,19.0,30.11,West,263,4.0,14.0,74,0.00,,OVC047,0.00,VWS V12.08,2013-03-19 05:50:00,
2013-03-19 01:53:00,25.9,19.1,30.11,West,267,2.0,6.0,75,0.00,,OVC020,0.00,VWS V12.08,2013-03-19 05:53:00,
2013-03-19 01:58:00,25.8,19.0,30.10,SW,219,11.0,11.0,75,0.00,,OVC020,0.00,VWS V12.08,2013-03-19 05:58:00,
2013-03-19 02:00:00,25.8,19.0,30.10,WSW,258,7.0,11.0,75,0.00,,OVC047,0.00,VWS V12.08,2013-03-19 06:00:00,
2013-03-19 02:03:00,25.8,19.3,30.10,WSW,243,6.0,10.0,76,0.00,,OVC020,0.00,VWS V12.08,2013-03-19 06:03:00,
2013-03-19 02:08:00,25.8,19.6,30.10,South,186,3.0,6.0,77,0.00,,OVC020,0.00,VWS V12.08,2013-03-19 06:08:00,
2013-03-19 02:10:00,25.6,19.4,30.10,SW,217,10.0,13.0,77,0.00,,OVC047,0.00,VWS V12.08,2013-03-19 06:10:00,
2013-03-19 02:13:00,25.6,19.4,30.10,SW,230,7.0,8.0,77,0.00,,OVC020,0.00,VWS V12.08,2013-03-19 06:13:00,
2013-03-19 02:18:00,25.5,19.9,30.10,WSW,256,7.0,8.0,79,0.00,,OVC020,0.00,VWS V12.08,2013-03-19 06:18:00,
2013-03-19 02:20:00,25.5,19.9,30.10,WSW,237,12.0,12.0,79,0.00,,OVC047,0.00,VWS V12.08,2013-03-19 06:20:00,
2013-03-19 02:23:00,25.3,20.0,30.10,SSE,161,10.0,13.0,80,0.00,,OVC020,0.00,VWS V12.08,2013-03-19 06:23:00,
2013-03-19 02:28:00,25.3,20.3,30.09,ESE,117,3.0,3.0,81,0.00,,OVC020,0.00,VWS V12.08,2013-03-19 06:28:00,
2013-03-19 02:30:00,25.3,20.3,30.09,ESE,119,0.0,3.0,81,0.00,,OVC047,0.00,VWS V12.08,2013-03-19 06:30:00,
2013-03-19 02:33:00,25.3,20.3,30.09,ESE,113,1.0,8.0,81,0.00,,OVC020,0.00,VWS V12.08,2013-03-19 06:33:00,
2013-03-19 02:38:00,25.3,20.3,30.09,WNW,296,2.0,7.0,81,0.00,,OVC020,0.00,VWS V12.08,2013-03-19 06:38:00,
2013-03-19 02:40:00,25.3,20.3,30.09,WNW,296,1.0,7.0,81,0.00,,OVC047,0.00,VWS V12.08,2013-03-19 06:40:00,
2013-03-19 02:43:00,25.3,20.3,30.08,SW,219,1.0,3.0,81,0.00,,OVC020,0.00,VWS V12.08,2013-03-19 06:43:00,
2013-03-19 02:48:00,25.3,20.6,30.08,SSW,212,1.0,1.0,82,0.00,,OVC020,0.00,VWS V12.08,2013-03-19 06:48:00,
2013-03-19 02:50:00,25.3,20.6,30.08,SSW,213,2.0,3.0,82,0.00,,OVC047,0.00,VWS V12.08,2013-03-19 06:50:00,
2013-03-19 02:53:00,25.2,21.0,30.08,NW,313,1.0,2.0,84,0.00,,OVC020,0.00,VWS V12.08,2013-03-19 06:53:00,
2013-03-19 02:58:00,25.0,21.4,30.07,SSW,208,2.0,2.0,86,0.00,,OVC020,0.00,VWS V12.08,2013-03-19 06:58:00,
2013-03-19 03:00:00,25.0,21.4,30.07,SW,233,5.0,5.0,86,0.00,,OVC047,0.00,VWS V12.08,2013-03-19 07:00:00,
2013-03-19 03:03:00,25.0,21.4,30.07,WSW,241,0.0,0.0,86,0.00,,OVC020,0.00,VWS V12.08,2013-03-19 07:03:00,
2013-03-19 03:08:00,24.9,21.3,30.07,West,265,5.0,7.0,86,0.00,,OVC020,0.00,VWS V12.08,2013-03-19 07:08:00,
2013-03-19 03:10:00,24.9,21.3,30.07,West,265,2.0,7.0,86,0.00,,OVC047,0.00,VWS V12.08,2013-03-19 07:10:00,
2013-03-19 03:13:00,24.9,21.6,30.06,SW,223,1.0,5.0,87,0.00,,OVC020,0.00,VWS V12.08,2013-03-19 07:13:00,
2013-03-19 03:18:00,24.7,21.4,30.06,WSW,256,3.0,7.0,87,0.00,,OVC020,0.00,VWS V12.08,2013-03-19 07:18:00,
2013-03-19 03:23:00,24.7,21.7,30.06,SSE,164,1.0,1.0,88,0.00,,OVC020,0.00,VWS V12.08,2013-03-19 07:23:00,
2013-03-19 03:28:00,24.7,21.9,30.05,ESE,114,2.0,3.0,89,0.00,,OVC020,0.00,VWS V12.08,2013-03-19 07:28:00,
2013-03-19 03:30:00,24.7,21.9,30.05,ESE,114,1.0,3.0,89,0.00,,OVC047,0.00,VWS V12.08,2013-03-19 07:30:00,
2013-03-19 03:33:00,24.6,22.4,30.05,ESE,114,0.0,2.0,91,0.00,,OVC020,0.00,VWS V12.08,2013-03-19 07:33:00,
2013-03-19 03:38:00,24.4,22.4,30.05,ESE,113,0.0,2.0,92,0.00,,OVC020,0.00,VWS V12.08,2013-03-19 07:38:00,
2013-03-19 03:40:00,24.4,22.4,30.05,ESE,113,1.0,2.0,92,0.00,,OVC047,0.00,VWS V12.08,2013-03-19 07:40:00,
2013-03-19 03:43:00,24.4,22.7,30.05,ESE,113,0.0,0.0,93,0.00,,OVC020,0.00,VWS V12.08,2013-03-19 07:43:00,
2013-03-19 03:48:00,24.4,22.7,30.05,ESE,113,0.0,0.0,93,0.00,,OVC020,0.00,VWS V12.08,2013-03-19 07:48:00,
2013-03-19 03:50:00,24.4,22.7,30.05,ESE,113,0.0,0.0,93,0.00,,OVC047,0.00,VWS V12.08,2013-03-19 07:50:00,
2013-03-19 03:53:00,24.4,22.9,30.05,ESE,113,0.0,0.0,94,0.00,,OVC020,0.00,VWS V12.08,2013-03-19 07:53:00,
2013-03-19 03:58:00,24.4,22.9,30.05,ESE,113,0.0,0.0,94,0.00,,OVC020,0.00,VWS V12.08,2013-03-19 07:58:00,
2013-03-19 04:00:00,24.3,22.8,30.05,ESE,113,1.0,1.0,94,0.00,,OVC047,0.00,VWS V12.08,2013-03-19 08:00:00,
2013-03-19 04:03:00,24.3,22.8,30.05,ESE,113,0.0,0.0,94,0.00,,OVC020,0.00,VWS V12.08,2013-03-19 08:03:00,
2013-03-19 04:08:00,24.3,23.1,30.05,ESE,113,1.0,2.0,95,0.00,,OVC020,0.00,VWS V12.08,2013-03-19 08:08:00,
2013-03-19 04:13:00,24.3,23.1,30.04,ESE,113,0.0,1.0,95,0.00,,OVC020,0.00,VWS V12.08,2013-03-19 08:13:00,
2013-03-19 04:18:00,24.4,23.2,30.04,ESE,113,0.0,0.0,95,0.00,,OVC020,0.00,VWS V12.08,2013-03-19 08:18:00,
2013-03-19 04:20:00,24.4,23.2,30.04,ESE,113,0.0,0.0,95,0.00,,OVC047,0.00,VWS V12.08,2013-03-19 08:20:00,
2013-03-19 04:23:00,24.4,23.2,30.04,ESE,113,0.0,0.0,95,0.00,,OVC020,0.00,VWS V12.08,2013-03-19 08:23:00,
2013-03-19 04:29:00,24.3,23.1,30.04,ESE,113,0.0,0.0,95,0.00,,OVC020,0.00,VWS V12.08,2013-03-19 08:29:00,
2013-03-19 04:30:00,24.3,23.1,30.04,ESE,113,0.0,0.0,95,0.00,,OVC047,0.00,VWS V12.08,2013-03-19 08:30:00,
2013-03-19 04:34:00,24.4,23.4,30.04,ESE,113,0.0,0.0,96,0.00,,OVC020,0.00,VWS V12.08,2013-03-19 08:34:00,
2013-03-19 04:39:00,24.4,23.4,30.04,ESE,113,0.0,0.0,96,0.00,,OVC020,0.00,VWS V12.08,2013-03-19 08:39:00,
2013-03-19 04:40:00,24.4,23.4,30.04,ESE,113,0.0,0.0,96,0.00,,OVC047,0.00,VWS V12.08,2013-03-19 08:40:00,
2013-03-19 04:44:00,24.4,23.4,30.03,ESE,113,0.0,0.0,96,0.00,,OVC020,0.00,VWS V12.08,2013-03-19 08:44:00,
2013-03-19 04:49:00,24.4,23.4,30.03,ESE,113,0.0,1.0,96,0.00,,OVC020,0.00,VWS V12.08,2013-03-19 08:49:00,
2013-03-19 04:50:00,24.4,23.4,30.03,ESE,113,0.0,1.0,96,0.00,,OVC047,0.00,VWS V12.08,2013-03-19 08:50:00,
2013-03-19 04:54:00,24.3,23.3,30.03,ESE,113,2.0,2.0,96,0.00,,OVC020,0.00,VWS V12.08,2013-03-19 08:54:00,
2013-03-19 04:59:00,24.3,23.3,30.02,ESE,113,2.0,2.0,96,0.00,,OVC020,0.00,VWS V12.08,2013-03-19 08:59:00,
2013-03-19 05:00:00,24.3,23.3,30.02,ESE,113,2.0,2.0,96,0.00,,OVC047,0.00,VWS V12.08,2013-03-19 09:00:00,
2013-03-19 05:04:00,24.3,23.3,30.02,East,82,2.0,4.0,96,0.00,,OVC020,0.00,VWS V12.08,2013-03-19 09:04:00,
2013-03-19 05:09:00,24.3,23.3,30.02,ENE,78,2.0,2.0,96,0.00,,OVC020,0.00,VWS V12.08,2013-03-19 09:09:00,
2013-03-19 05:10:00,24.3,23.3,30.02,ENE,78,0.0,2.0,96,0.00,,OVC047,0.00,VWS V12.08,2013-03-19 09:10:00,
2013-03-19 05:14:00,24.3,23.3,30.01,East,79,1.0,2.0,96,0.00,,OVC020,0.00,VWS V12.08,2013-03-19 09:14:00,
2013-03-19 05:19:00,24.3,23.6,30.01,East,79,0.0,0.0,97,0.00,,OVC020,0.00,VWS V12.08,2013-03-19 09:19:00,
2013-03-19 05:20:00,24.3,23.6,30.01,East,79,0.0,0.0,97,0.00,,OVC047,0.00,VWS V12.08,2013-03-19 09:20:00,
2013-03-19 05:24:00,24.3,23.6,30.01,East,79,0.0,0.0,97,0.00,,OVC020,0.00,VWS V12.08,2013-03-19 09:24:00,
2013-03-19 05:29:00,24.3,23.6,30.01,East,79,0.0,0.0,97,0.01,,OVC020,0.01,VWS V12.08,2013-03-19 09:29:00,
2013-03-19 05:30:00,24.3,23.6,30.01,East,79,0.0,0.0,97,0.01,,OVC047,0.01,VWS V12.08,2013-03-19 09:30:00,
2013-03-19 05:34:00,24.3,23.6,30.01,East,79,1.0,1.0,97,0.01,,OVC020,0.01,VWS V12.08,2013-03-19 09:34:00,
2013-03-19 05:39:00,24.1,23.4,30.01,East,79,0.0,0.0,97,0.01,,OVC020,0.01,VWS V12.08,2013-03-19 09:39:00,
2013-03-19 05:40:00,24.1,23.4,30.01,East,79,0.0,1.0,97,0.01,,OVC047,0.01,VWS V12.08,2013-03-19 09:40:00,
2013-03-19 05:44:00,24.1,23.4,30.01,East,79,1.0,2.0,97,0.02,,OVC020,0.02,VWS V12.08,2013-03-19 09:44:00,
2013-03-19 05:49:00,24.1,23.4,30.01,East,79,1.0,2.0,97,0.02,,OVC020,0.02,VWS V12.08,2013-03-19 09:49:00,
2013-03-19 05:50:00,24.1,23.4,30.01,East,79,1.0,2.0,97,0.02,,OVC047,0.02,VWS V12.08,2013-03-19 09:50:00,
2013-03-19 05:54:00,24.1,23.6,30.01,East,79,0.0,1.0,98,0.02,,OVC020,0.02,VWS V12.08,2013-03-19 09:54:00,
2013-03-19 05:59:00,24.1,23.6,30.00,East,79,0.0,0.0,98,0.02,,OVC020,0.02,VWS V12.08,2013-03-19 09:59:00,
2013-03-19 06:00:00,24.1,23.6,30.00,East,79,0.0,0.0,98,0.02,,OVC047,0.02,VWS V12.08,2013-03-19 10:00:00,
2013-03-19 06:04:00,24.1,23.6,30.00,East,79,0.0,0.0,98,0.02,,OVC020,0.02,VWS V12.08,2013-03-19 10:04:00,
2013-03-19 06:09:00,24.1,23.6,30.00,East,79,0.0,0.0,98,0.03,,OVC020,0.03,VWS V12.08,2013-03-19 10:09:00,
2013-03-19 06:10:00,24.1,23.6,30.00,East,79,0.0,0.0,98,0.03,,OVC047,0.03,VWS V12.08,2013-03-19 10:10:00,
2013-03-19 06:14:00,24.1,23.6,30.00,East,79,0.0,0.0,98,0.03,,OVC020,0.03,VWS V12.08,2013-03-19 10:14:00,
2013-03-19 06:19:00,24.3,23.8,30.00,East,80,0.0,0.0,98,0.03,,OVC020,0.03,VWS V12.08,2013-03-19 10:19:00,
2013-03-19 06:20:00,24.3,23.8,30.00,East,79,0.0,0.0,98,0.03,,OVC047,0.03,VWS V12.08,2013-03-19 10:20:00,
2013-03-19 06:24:00,24.1,23.6,30.00,East,80,1.0,2.0,98,0.03,,OVC020,0.03,VWS V12.08,2013-03-19 10:24:00,
2013-03-19 06:29:00,24.1,23.6,30.00,East,79,0.0,1.0,98,0.03,,OVC020,0.03,VWS V12.08,2013-03-19 10:29:00,
2013-03-19 06:30:00,24.1,23.6,30.00,East,79,0.0,0.0,98,0.03,,OVC047,0.03,VWS V12.08,2013-03-19 10:30:00,
2013-03-19 06:34:00,24.1,23.6,30.00,East,79,0.0,2.0,98,0.02,,OVC020,0.03,VWS V12.08,2013-03-19 10:34:00,
2013-03-19 06:39:00,24.1,23.6,30.00,East,79,1.0,2.0,98,0.02,,OVC020,0.03,VWS V12.08,2013-03-19 10:39:00,
2013-03-19 06:40:00,24.1,23.6,30.00,East,79,1.0,2.0,98,0.02,,OVC047,0.03,VWS V12.08,2013-03-19 10:40:00,
2013-03-19 06:45:00,24.1,23.6,29.99,East,79,0.0,0.0,98,0.02,,OVC020,0.03,VWS V12.08,2013-03-19 10:45:00,
2013-03-19 06:50:00,24.1,23.9,29.99,East,79,0.0,0.0,99,0.02,,OVC020,0.04,VWS V12.08,2013-03-19 10:50:00,
2013-03-19 06:55:00,24.3,24.1,29.99,East,79,0.0,0.0,99,0.02,,OVC020,0.04,VWS V12.08,2013-03-19 10:55:00,
2013-03-19 07:00:00,24.3,24.1,29.98,East,79,0.0,0.0,99,0.02,,OVC020,0.04,VWS V12.08,2013-03-19 11:00:00,
2013-03-19 07:05:00,24.1,23.6,29.98,East,79,0.0,0.0,98,0.02,,OVC020,0.04,VWS V12.08,2013-03-19 11:05:00,
2013-03-19 07:10:00,24.1,23.6,29.98,East,79,0.0,0.0,98,0.01,,OVC020,0.04,VWS V12.08,2013-03-19 11:10:00,
2013-03-19 07:15:00,24.3,24.1,29.98,East,79,0.0,1.0,99,0.01,,OVC020,0.04,VWS V12.08,2013-03-19 11:15:00,
2013-03-19 07:20:00,24.3,24.1,29.98,East,79,0.0,0.0,99,0.01,,OVC020,0.04,VWS V12.08,2013-03-19 11:20:00,
2013-03-19 07:25:00,24.4,24.2,29.98,East,80,0.0,0.0,99,0.01,,OVC020,0.04,VWS V12.08,2013-03-19 11:25:00,
2013-03-19 07:30:00,24.4,23.9,29.98,East,79,0.0,0.0,98,0.01,,OVC020,0.04,VWS V12.08,2013-03-19 11:30:00,
2013-03-19 07:35:00,24.4,23.9,29.98,East,79,0.0,0.0,98,0.01,,OVC020,0.04,VWS V12.08,2013-03-19 11:35:00,
2013-03-19 07:40:00,24.4,23.9,29.98,East,79,0.0,0.0,98,0.01,,OVC020,0.04,VWS V12.08,2013-03-19 11:40:00,
2013-03-19 07:45:00,24.4,23.9,29.98,East,79,0.0,0.0,98,0.01,,OVC020,0.04,VWS V12.08,2013-03-19 11:45:00,
2013-03-19 07:50:00,24.6,24.1,29.98,East,79,0.0,0.0,98,0.00,,OVC020,0.04,VWS V12.08,2013-03-19 11:50:00,
2013-03-19 07:55:00,24.6,24.1,29.98,East,80,0.0,0.0,98,0.00,,OVC020,0.04,VWS V12.08,2013-03-19 11:55:00,
2013-03-19 08:00:00,24.6,24.1,29.96,East,79,0.0,0.0,98,0.00,,OVC020,0.04,VWS V12.08,2013-03-19 12:00:00,
2013-03-19 08:05:00,24.6,24.1,29.96,East,79,0.0,0.0,98,0.00,,OVC020,0.04,VWS V12.08,2013-03-19 12:05:00,
2013-03-19 08:10:00,24.6,24.1,29.96,East,79,0.0,0.0,98,0.00,,OVC020,0.04,VWS V12.08,2013-03-19 12:10:00,
2013-03-19 08:15:00,24.7,24.2,29.95,East,79,0.0,0.0,98,0.00,,OVC020,0.04,VWS V12.08,2013-03-19 12:15:00,
2013-03-19 08:20:00,24.9,24.4,29.95,East,79,0.0,0.0,98,0.00,,OVC020,0.04,VWS V12.08,2013-03-19 12:20:00,
2013-03-19 08:25:00,25.0,24.5,29.95,East,79,0.0,0.0,98,0.00,,OVC020,0.04,VWS V12.08,2013-03-19 12:25:00,
2013-03-19 08:30:00,25.0,24.5,29.95,East,79,0.0,0.0,98,0.00,,OVC020,0.04,VWS V12.08,2013-03-19 12:30:00,
2013-03-19 08:35:00,25.2,24.7,29.95,East,79,0.0,0.0,98,0.00,,OVC020,0.04,VWS V12.08,2013-03-19 12:35:00,
2013-03-19 08:40:00,25.3,24.8,29.95,East,79,0.0,0.0,98,0.00,,OVC020,0.04,VWS V12.08,2013-03-19 12:40:00,
2013-03-19 08:45:00,25.5,24.8,29.94,East,80,0.0,0.0,97,0.00,,OVC020,0.04,VWS V12.08,2013-03-19 12:45:00,
2013-03-19 08:50:00,25.5,24.5,29.94,ENE,65,2.0,3.0,96,0.00,,OVC020,0.04,VWS V12.08,2013-03-19 12:50:00,
2013-03-19 08:55:00,25.6,24.6,29.94,ENE,68,2.0,2.0,96,0.00,,OVC020,0.04,VWS V12.08,2013-03-19 12:55:00,
2013-03-19 09:00:00,25.6,24.6,29.93,ENE,78,0.0,0.0,96,0.00,,OVC020,0.04,VWS V12.08,2013-03-19 13:00:00,
2013-03-19 09:05:00,25.6,24.6,29.93,East,79,2.0,3.0,96,0.00,,OVC020,0.04,VWS V12.08,2013-03-19 13:05:00,
2013-03-19 09:10:00,25.8,24.8,29.93,ENE,78,2.0,5.0,96,0.00,,OVC020,0.04,VWS V12.08,2013-03-19 13:10:00,
2013-03-19 09:15:00,25.8,24.8,29.92,East,79,0.0,0.0,96,0.00,,OVC020,0.04,VWS V12.08,2013-03-19 13:15:00,
2013-03-19 09:20:00,25.9,24.9,29.92,East,79,0.0,2.0,96,0.00,,OVC020,0.04,VWS V12.08,2013-03-19 13:20:00,
2013-03-19 09:25:00,25.9,24.9,29.92,East,79,2.0,2.0,96,0.00,,OVC020,0.04,VWS V12.08,2013-03-19 13:25:00,
2013-03-19 09:30:00,26.1,25.1,29.91,East,79,0.0,0.0,96,0.00,,OVC020,0.04,VWS V12.08,2013-03-19 13:30:00,
2013-03-19 09:35:00,26.4,25.4,29.91,East,80,0.0,0.0,96,0.00,,OVC020,0.04,VWS V12.08,2013-03-19 13:35:00,
2013-03-19 09:40:00,26.4,25.2,29.91,East,79,0.0,2.0,95,0.00,,OVC020,0.04,VWS V12.08,2013-03-19 13:40:00,
2013-03-19 09:45:00,26.7,25.5,29.90,East,79,0.0,0.0,95,0.00,,OVC020,0.04,VWS V12.08,2013-03-19 13:45:00,
2013-03-19 09:50:00,27.0,25.8,29.90,East,79,0.0,0.0,95,0.00,,OVC020,0.04,VWS V12.08,2013-03-19 13:50:00,
2013-03-19 09:55:00,27.3,26.1,29.90,East,80,0.0,0.0,95,0.00,,OVC020,0.04,VWS V12.08,2013-03-19 13:55:00,
2013-03-19 10:00:00,27.4,25.9,29.90,East,82,2.0,3.0,94,0.00,,OVC047,0.04,VWS V12.08,2013-03-19 14:00:00,
2013-03-19 10:01:00,27.3,25.8,29.90,East,82,1.0,2.0,94,0.00,,OVC020,0.04,VWS V12.08,2013-03-19 14:01:00,
2013-03-19 10:06:00,27.1,25.4,29.90,East,82,1.0,2.0,93,0.00,,OVC020,0.04,VWS V12.08,2013-03-19 14:06:00,
2013-03-19 10:10:00,27.3,25.5,29.90,East,82,0.0,1.0,93,0.00,,OVC047,0.04,VWS V12.08,2013-03-19 14:10:00,
2013-03-19 10:11:00,27.4,25.6,29.90,East,82,0.0,0.0,93,0.00,,OVC020,0.04,VWS V12.08,2013-03-19 14:11:00,
2013-03-19 10:16:00,27.7,25.7,29.89,East,82,0.0,0.0,92,0.00,,OVC020,0.04,VWS V12.08,2013-03-19 14:16:00,
2013-03-19 10:20:00,27.8,25.8,29.89,East,82,0.0,0.0,92,0.00,,OVC047,0.04,VWS V12.08,2013-03-19 14:20:00,
2013-03-19 10:21:00,28.0,26.0,29.89,East,82,0.0,1.0,92,0.00,,OVC020,0.04,VWS V12.08,2013-03-19 14:21:00,
2013-03-19 10:26:00,28.1,25.8,29.89,East,82,0.0,0.0,91,0.00,,OVC020,0.04,VWS V12.08,2013-03-19 14:26:00,
2013-03-19 10:30:00,28.3,26.0,29.88,East,82,0.0,0.0,91,0.00,,OVC047,0.04,VWS V12.08,2013-03-19 14:30:00,
2013-03-19 10:31:00,28.3,26.0,29.88,East,82,0.0,0.0,91,0.00,,OVC020,0.04,VWS V12.08,2013-03-19 14:31:00,
2013-03-19 10:36:00,28.3,25.8,29.88,SSE,150,2.0,3.0,90,0.00,,OVC020,0.04,VWS V12.08,2013-03-19 14:36:00,
2013-03-19 10:40:00,28.3,25.5,29.88,East,80,5.0,6.0,89,0.00,,OVC047,0.04,VWS V12.08,2013-03-19 14:40:00,
2013-03-19 10:41:00,28.1,25.5,29.88,East,80,2.0,6.0,90,0.00,,OVC020,0.04,VWS V12.08,2013-03-19 14:41:00,
2013-03-19 10:46:00,28.1,25.5,29.87,East,82,1.0,2.0,90,0.00,,OVC020,0.04,VWS V12.08,2013-03-19 14:46:00,
2013-03-19 10:50:00,28.3,25.8,29.87,East,82,0.0,0.0,90,0.00,,OVC047,0.04,VWS V12.08,2013-03-19 14:50:00,
2013-03-19 10:51:00,28.3,26.0,29.87,East,82,0.0,0.0,91,0.00,,OVC020,0.04,VWS V12.08,2013-03-19 14:51:00,
2013-03-19 10:56:00,28.6,26.3,29.87,East,82,0.0,0.0,91,0.00,,OVC020,0.04,VWS V12.08,2013-03-19 14:56:00,
2013-03-19 11:00:00,28.7,26.1,29.87,East,82,0.0,0.0,90,0.00,,OVC047,0.04,VWS V12.08,2013-03-19 15:00:00,
2013-03-19 11:02:00,28.9,26.3,29.87,East,82,0.0,0.0,90,0.00,,OVC020,0.04,VWS V12.08,2013-03-19 15:02:00,
2013-03-19 11:07:00,29.0,26.4,29.87,East,82,0.0,0.0,90,0.00,,OVC020,0.04,VWS V12.08,2013-03-19 15:07:00,
2013-03-19 11:10:00,29.2,26.4,29.87,East,82,0.0,0.0,89,0.00,,OVC047,0.04,VWS V12.08,2013-03-19 15:10:00,
2013-03-19 11:12:00,29.2,26.4,29.87,East,82,0.0,0.0,89,0.00,,OVC020,0.04,VWS V12.08,2013-03-19 15:12:00,
2013-03-19 11:17:00,29.3,26.5,29.87,East,82,0.0,0.0,89,0.00,,OVC020,0.04,VWS V12.08,2013-03-19 15:17:00,
2013-03-19 11:20:00,29.3,26.5,29.87,East,82,0.0,0.0,89,0.00,,OVC047,0.04,VWS V12.08,2013-03-19 15:20:00,
2013-03-19 11:22:00,29.3,26.5,29.87,East,82,0.0,0.0,89,0.00,,OVC020,0.04,VWS V12.08,2013-03-19 15:22:00,
2013-03-19 11:27:00,29.5,26.7,29.87,East,82,1.0,3.0,89,0.00,,OVC020,0.04,VWS V12.08,2013-03-19 15:27:00,
2013-03-19 11:30:00,29.5,26.7,29.85,East,82,0.0,2.0,89,0.00,,OVC047,0.04,VWS V12.08,2013-03-19 15:30:00,
2013-03-19 11:32:00,29.5,26.7,29.85,East,82,0.0,0.0,89,0.00,,OVC020,0.04,VWS V12.08,2013-03-19 15:32:00,
2013-03-19 11:37:00,29.5,26.4,29.85,East,79,4.0,5.0,88,0.00,,OVC020,0.04,VWS V12.08,2013-03-19 15:37:00,
2013-03-19 11:40:00,29.5,26.4,29.85,East,80,5.0,7.0,88,0.00,,OVC047,0.04,VWS V12.08,2013-03-19 15:40:00,
2013-03-19 11:42:00,29.5,26.4,29.85,East,79,1.0,3.0,88,0.00,,OVC020,0.04,VWS V12.08,2013-03-19 15:42:00,
2013-03-19 11:47:00,29.5,26.4,29.84,East,82,3.0,4.0,88,0.00,,OVC020,0.04,VWS V12.08,2013-03-19 15:47:00,
2013-03-19 11:50:00,29.5,26.4,29.84,ESE,119,0.0,3.0,88,0.00,,OVC047,0.04,VWS V12.08,2013-03-19 15:50:00,
2013-03-19 11:52:00,29.6,26.5,29.84,East,83,0.0,1.0,88,0.00,,OVC020,0.04,VWS V12.08,2013-03-19 15:52:00,
2013-03-19 11:57:00,29.9,26.8,29.84,East,85,1.0,3.0,88,0.00,,OVC020,0.04,VWS V12.08,2013-03-19 15:57:00,
2013-03-19 12:00:00,29.9,26.5,29.85,East,86,0.0,3.0,87,0.00,,OVC047,0.04,VWS V12.08,2013-03-19 16:00:00,
2013-03-19 12:02:00,30.1,26.7,29.85,East,85,2.0,2.0,87,0.00,,OVC020,0.04,VWS V12.08,2013-03-19 16:02:00,
2013-03-19 12:07:00,30.2,26.8,29.85,East,85,0.0,0.0,87,0.00,,OVC020,0.04,VWS V12.08,2013-03-19 16:07:00,
2013-03-19 12:10:00,30.2,26.8,29.85,East,86,0.0,0.0,87,0.00,,OVC047,0.04,VWS V12.08,2013-03-19 16:10:00,
2013-03-19 12:12:00,30.4,26.7,29.85,East,85,0.0,0.0,86,0.00,,OVC020,0.04,VWS V12.08,2013-03-19 16:12:00,
2013-03-19 12:18:00,30.4,26.4,29.84,East,85,0.0,0.0,85,0.00,,OVC020,0.04,VWS V12.08,2013-03-19 16:18:00,
2013-03-19 12:20:00,30.4,26.4,29.84,East,85,0.0,0.0,85,0.00,,OVC047,0.04,VWS V12.08,2013-03-19 16:20:00,
2013-03-19 12:23:00,30.5,26.5,29.84,East,85,0.0,0.0,85,0.00,,OVC020,0.04,VWS V12.08,2013-03-19 16:23:00,
2013-03-19 12:28:00,30.5,26.5,29.85,East,85,0.0,0.0,85,0.00,,OVC020,0.04,VWS V12.08,2013-03-19 16:28:00,
2013-03-19 12:30:00,30.5,26.5,29.85,East,85,0.0,0.0,85,0.00,,OVC047,0.04,VWS V12.08,2013-03-19 16:30:00,
2013-03-19 12:33:00,30.4,26.1,29.85,East,85,0.0,0.0,84,0.00,,OVC020,0.04,VWS V12.08,2013-03-19 16:33:00,
2013-03-19 12:38:00,30.5,26.2,29.85,East,85,0.0,0.0,84,0.00,,OVC020,0.04,VWS V12.08,2013-03-19 16:38:00,
2013-03-19 12:40:00,30.5,26.2,29.85,East,85,0.0,0.0,84,0.00,,OVC047,0.04,VWS V12.08,2013-03-19 16:40:00,
2013-03-19 12:43:00,30.7,26.5,29.85,East,85,0.0,0.0,84,0.00,,OVC020,0.04,VWS V12.08,2013-03-19 16:43:00,
2013-03-19 12:48:00,30.7,26.7,29.85,East,85,0.0,0.0,85,0.00,,OVC020,0.04,VWS V12.08,2013-03-19 16:48:00,
2013-03-19 12:50:00,30.7,26.7,29.85,East,85,0.0,0.0,85,0.00,,OVC047,0.04,VWS V12.08,2013-03-19 16:50:00,
2013-03-19 12:53:00,30.5,26.2,29.85,East,85,0.0,1.0,84,0.00,,OVC020,0.04,VWS V12.08,2013-03-19 16:53:00,
2013-03-19 12:58:00,30.5,26.5,29.84,East,85,0.0,0.0,85,0.00,,OVC020,0.04,VWS V12.08,2013-03-19 16:58:00,
2013-03-19 13:00:00,30.5,26.5,29.84,East,85,0.0,0.0,85,0.00,,OVC047,0.04,VWS V12.08,2013-03-19 17:00:00,
2013-03-19 13:03:00,30.5,26.2,29.84,East,95,2.0,4.0,84,0.00,,OVC020,0.04,VWS V12.08,2013-03-19 17:03:00,
2013-03-19 13:08:00,30.4,25.6,29.84,East,86,2.0,4.0,82,0.00,,OVC020,0.04,VWS V12.08,2013-03-19 17:08:00,
2013-03-19 13:10:00,30.4,25.6,29.84,East,85,0.0,3.0,82,0.00,,OVC047,0.04,VWS V12.08,2013-03-19 17:10:00,
2013-03-19 13:13:00,30.4,25.3,29.86,East,85,2.0,3.0,81,0.00,,OVC020,0.04,VWS V12.08,2013-03-19 17:13:00,
2013-03-19 13:18:00,30.4,25.3,29.86,East,90,1.0,3.0,81,0.00,,OVC020,0.04,VWS V12.08,2013-03-19 17:18:00,
2013-03-19 13:20:00,30.4,25.3,29.86,East,90,1.0,2.0,81,0.00,,OVC047,0.04,VWS V12.08,2013-03-19 17:20:00,
2013-03-19 13:23:00,30.2,25.1,29.86,East,88,2.0,3.0,81,0.00,,OVC020,0.04,VWS V12.08,2013-03-19 17:23:00,
2013-03-19 13:28:00,30.1,25.3,29.85,East,79,0.0,3.0,82,0.00,,OVC020,0.04,VWS V12.08,2013-03-19 17:28:00,
2013-03-19 13:30:00,30.1,25.3,29.85,East,79,0.0,2.0,82,0.00,,OVC047,0.04,VWS V12.08,2013-03-19 17:30:00,
2013-03-19 13:33:00,30.1,25.9,29.85,East,79,2.0,2.0,84,0.00,,OVC020,0.04,VWS V12.08,2013-03-19 17:33:00,
2013-03-19 13:38:00,29.8,25.3,29.85,ESE,110,0.0,2.0,83,0.00,,OVC020,0.04,VWS V12.08,2013-03-19 17:38:00,
2013-03-19 13:40:00,29.8,25.3,29.85,ESE,110,0.0,1.0,83,0.00,,OVC047,0.04,VWS V12.08,2013-03-19 17:40:00,
2013-03-19 13:43:00,29.8,25.6,29.85,ESE,110,0.0,0.0,84,0.00,,OVC020,0.04,VWS V12.08,2013-03-19 17:43:00,
2013-03-19 13:48:00,29.6,25.4,29.85,East,83,3.0,3.0,84,0.00,,OVC020,0.04,VWS V12.08,2013-03-19 17:48:00,
2013-03-19 13:50:00,29.6,25.4,29.85,East,83,3.0,3.0,84,0.00,,OVC047,0.04,VWS V12.08,2013-03-19 17:50:00,
2013-03-19 13:53:00,29.5,25.8,29.85,East,82,1.0,3.0,86,0.00,,OVC020,0.04,VWS V12.08,2013-03-19 17:53:00,
2013-03-19 13:58:00,29.2,25.8,29.84,ENE,76,5.0,5.0,87,0.00,,OVC020,0.04,VWS V12.08,2013-03-19 17:58:00,
2013-03-19 14:00:00,29.0,25.6,29.84,ENE,78,4.0,6.0,87,0.00,,OVC047,0.04,VWS V12.08,2013-03-19 18:00:00,
2013-03-19 14:03:00,28.6,25.8,29.84,East,97,5.0,6.0,89,0.01,,OVC020,0.05,VWS V12.08,2013-03-19 18:03:00,
2013-03-19 14:08:00,28.1,25.8,29.84,East,82,5.0,6.0,91,0.01,,OVC020,0.06,VWS V12.08,2013-03-19 18:08:00,
2013-03-19 14:10:00,28.1,25.8,29.84,East,79,3.0,6.0,91,0.02,,OVC047,0.06,VWS V12.08,2013-03-19 18:10:00,
2013-03-19 14:13:00,27.8,26.0,29.83,ENE,71,5.0,6.0,93,0.02,,OVC020,0.07,VWS V12.08,2013-03-19 18:13:00,
2013-03-19 14:18:00,27.5,26.3,29.83,ENE,73,1.0,2.0,95,0.03,,OVC020,0.07,VWS V12.08,2013-03-19 18:18:00,
2013-03-19 14:20:00,27.5,26.3,29.83,ENE,73,1.0,2.0,95,0.03,,OVC047,0.07,VWS V12.08,2013-03-19 18:20:00,
2013-03-19 14:23:00,27.5,26.3,29.83,East,80,4.0,7.0,95,0.04,,OVC020,0.08,VWS V12.08,2013-03-19 18:23:00,
2013-03-19 14:28:00,27.4,26.4,29.82,NE,55,0.0,0.0,96,0.05,,OVC020,0.09,VWS V12.08,2013-03-19 18:28:00,
2013-03-19 14:30:00,27.4,26.4,29.82,NE,55,0.0,0.0,96,0.05,,OVC047,0.09,VWS V12.08,2013-03-19 18:30:00,
2013-03-19 14:33:00,27.5,26.8,29.82,ENE,71,2.0,2.0,97,0.06,,OVC020,0.10,VWS V12.08,2013-03-19 18:33:00,
2013-03-19 14:39:00,27.5,26.8,29.82,ENE,69,0.0,2.0,97,0.06,,OVC020,0.10,VWS V12.08,2013-03-19 18:39:00,
2013-03-19 14:40:00,27.5,26.8,29.82,ENE,69,0.0,2.0,97,0.06,,OVC047,0.10,VWS V12.08,2013-03-19 18:40:00,
2013-03-19 14:44:00,27.5,27.0,29.81,ENE,69,0.0,0.0,98,0.07,,OVC020,0.11,VWS V12.08,2013-03-19 18:44:00,
2013-03-19 14:49:00,27.7,27.2,29.81,NW,323,1.0,4.0,98,0.08,,OVC020,0.12,VWS V12.08,2013-03-19 18:49:00,
2013-03-19 14:50:00,27.7,27.2,29.81,NW,323,1.0,4.0,98,0.08,,OVC047,0.12,VWS V12.08,2013-03-19 18:50:00,
2013-03-19 14:54:00,27.5,27.0,29.81,NE,48,0.0,6.0,98,0.08,,OVC020,0.12,VWS V12.08,2013-03-19 18:54:00,
2013-03-19 14:59:00,27.4,26.9,29.80,East,89,4.0,4.0,98,0.10,,OVC020,0.14,VWS V12.08,2013-03-19 18:59:00,
2013-03-19 15:00:00,27.4,26.9,29.80,ENE,69,1.0,2.0,98,0.10,,OVC047,0.14,VWS V12.08,2013-03-19 19:00:00,
2013-03-19 15:04:00,27.3,26.8,29.80,NE,44,3.0,5.0,98,0.11,,OVC020,0.15,VWS V12.08,2013-03-19 19:04:00,
2013-03-19 15:09:00,27.0,26.8,29.80,NE,42,1.0,6.0,99,0.11,,OVC020,0.15,VWS V12.08,2013-03-19 19:09:00,
2013-03-19 15:10:00,27.0,26.8,29.80,NE,42,2.0,6.0,99,0.11,,OVC047,0.15,VWS V12.08,2013-03-19 19:10:00,
2013-03-19 15:14:00,27.0,26.8,29.77,NNE,30,1.0,5.0,99,0.10,,OVC020,0.16,VWS V12.08,2013-03-19 19:14:00,
2013-03-19 15:19:00,26.8,26.6,29.77,NE,56,6.0,6.0,99,0.11,,OVC020,0.17,VWS V12.08,2013-03-19 19:19:00,
2013-03-19 15:20:00,26.8,26.6,29.77,ENE,69,0.0,3.0,99,0.11,,OVC047,0.17,VWS V12.08,2013-03-19 19:20:00,
2013-03-19 15:24:00,26.8,26.8,29.77,NE,45,1.0,2.0,100,0.10,,OVC020,0.17,VWS V12.08,2013-03-19 19:24:00,
2013-03-19 15:29:00,26.8,26.8,29.77,NE,54,1.0,2.0,100,0.10,,OVC020,0.17,VWS V12.08,2013-03-19 19:29:00,
2013-03-19 15:30:00,26.8,26.8,29.77,NE,52,0.0,2.0,100,0.10,,OVC047,0.17,VWS V12.08,2013-03-19 19:30:00,
2013-03-19 15:34:00,26.8,26.8,29.77,NE,47,1.0,5.0,100,0.08,,OVC020,0.17,VWS V12.08,2013-03-19 19:34:00,
2013-03-19 15:39:00,26.8,26.8,29.77,East,85,2.0,3.0,100,0.09,,OVC020,0.18,VWS V12.08,2013-03-19 19:39:00,
2013-03-19 15:40:00,26.8,26.8,29.77,East,89,1.0,3.0,100,0.09,,OVC047,0.18,VWS V12.08,2013-03-19 19:40:00,
2013-03-19 15:44:00,26.7,26.7,29.76,ENE,61,2.0,3.0,100,0.08,,OVC020,0.18,VWS V12.08,2013-03-19 19:44:00,
2013-03-19 15:49:00,26.8,26.8,29.76,ENE,61,0.0,0.0,100,0.08,,OVC020,0.18,VWS V12.08,2013-03-19 19:49:00,
2013-03-19 15:50:00,26.8,26.8,29.76,ENE,61,0.0,0.0,100,0.08,,OVC047,0.18,VWS V12.08,2013-03-19 19:50:00,
2013-03-19 15:54:00,26.8,26.8,29.76,ENE,61,0.0,0.0,100,0.06,,OVC020,0.18,VWS V12.08,2013-03-19 19:54:00,
2013-03-19 15:59:00,27.0,27.0,29.74,ENE,59,0.0,0.0,100,0.06,,OVC020,0.18,VWS V12.08,2013-03-19 19:59:00,
2013-03-19 16:00:00,27.0,27.0,29.74,ENE,59,0.0,0.0,100,0.06,,OVC047,0.18,VWS V12.08,2013-03-19 20:00:00,
2013-03-19 16:04:00,27.1,27.1,29.74,ENE,61,0.0,0.0,100,0.04,,OVC020,0.18,VWS V12.08,2013-03-19 20:04:00,
2013-03-19 16:09:00,27.3,27.3,29.74,ENE,61,0.0,0.0,100,0.04,,OVC020,0.18,VWS V12.08,2013-03-19 20:09:00,
2013-03-19 16:10:00,27.3,27.3,29.74,ENE,61,0.0,0.0,100,0.04,,OVC047,0.18,VWS V12.08,2013-03-19 20:10:00,
2013-03-19 16:14:00,27.3,27.3,29.74,ENE,59,0.0,0.0,100,0.04,,OVC020,0.19,VWS V12.08,2013-03-19 20:14:00,
2013-03-19 16:19:00,27.4,27.4,29.74,ENE,59,0.0,0.0,100,0.04,,OVC020,0.19,VWS V12.08,2013-03-19 20:19:00,
2013-03-19 16:20:00,27.4,27.4,29.74,ENE,59,0.0,0.0,100,0.04,,OVC047,0.19,VWS V12.08,2013-03-19 20:20:00,
2013-03-19 16:24:00,27.4,27.2,29.74,ENE,61,0.0,0.0,99,0.02,,OVC020,0.19,VWS V12.08,2013-03-19 20:24:00,
2013-03-19 16:29:00,27.4,27.2,29.74,ENE,59,0.0,0.0,99,0.02,,OVC020,0.19,VWS V12.08,2013-03-19 20:29:00,
2013-03-19 16:30:00,27.4,27.2,29.74,ENE,59,0.0,0.0,99,0.02,,OVC047,0.19,VWS V12.08,2013-03-19 20:30:00,
2013-03-19 16:34:00,27.4,27.2,29.74,ENE,61,0.0,0.0,99,0.02,,OVC020,0.19,VWS V12.08,2013-03-19 20:34:00,
2013-03-19 16:39:00,27.4,27.2,29.74,ENE,59,0.0,0.0,99,0.02,,OVC020,0.19,VWS V12.08,2013-03-19 20:39:00,
2013-03-19 16:40:00,27.4,27.2,29.74,ENE,61,0.0,0.0,99,0.02,,OVC047,0.19,VWS V12.08,2013-03-19 20:40:00,
2013-03-19 16:44:00,27.5,27.3,29.73,ENE,59,0.0,0.0,99,0.01,,OVC020,0.19,VWS V12.08,2013-03-19 20:44:00,
2013-03-19 16:49:00,27.3,26.8,29.73,ENE,61,0.0,0.0,98,0.02,,OVC020,0.20,VWS V12.08,2013-03-19 20:49:00,
2013-03-19 16:50:00,27.4,26.9,29.73,ENE,59,0.0,0.0,98,0.02,,OVC047,0.20,VWS V12.08,2013-03-19 20:50:00,
2013-03-19 16:54:00,27.3,26.8,29.73,ENE,61,0.0,0.0,98,0.02,,OVC020,0.20,VWS V12.08,2013-03-19 20:54:00,
2013-03-19 16:59:00,27.4,26.9,29.73,ENE,61,0.0,0.0,98,0.02,,OVC020,0.20,VWS V12.08,2013-03-19 20:59:00,
2013-03-19 17:00:00,27.4,26.9,29.73,ENE,61,0.0,0.0,98,0.02,,OVC047,0.20,VWS V12.08,2013-03-19 21:00:00,
2013-03-19 17:04:00,27.5,27.0,29.73,ENE,59,0.0,0.0,98,0.02,,OVC020,0.20,VWS V12.08,2013-03-19 21:04:00,
2013-03-19 17:09:00,27.5,27.0,29.73,ENE,59,0.0,0.0,98,0.02,,OVC020,0.20,VWS V12.08,2013-03-19 21:09:00,
2013-03-19 17:10:00,27.5,27.0,29.73,ENE,59,0.0,0.0,98,0.02,,OVC047,0.20,VWS V12.08,2013-03-19 21:10:00,
2013-03-19 17:14:00,27.4,26.9,29.73,ENE,61,0.0,0.0,98,0.02,,OVC020,0.20,VWS V12.08,2013-03-19 21:14:00,
2013-03-19 17:19:00,27.3,26.8,29.73,ENE,59,0.0,0.0,98,0.02,,OVC020,0.20,VWS V12.08,2013-03-19 21:19:00,
2013-03-19 17:20:00,27.3,26.6,29.73,ENE,61,0.0,0.0,97,0.02,,OVC047,0.20,VWS V12.08,2013-03-19 21:20:00,
2013-03-19 17:24:00,27.1,26.6,29.73,ENE,59,0.0,0.0,98,0.02,,OVC020,0.21,VWS V12.08,2013-03-19 21:24:00,
2013-03-19 17:29:00,27.0,26.5,29.72,ENE,61,0.0,0.0,98,0.02,,OVC020,0.21,VWS V12.08,2013-03-19 21:29:00,
2013-03-19 17:30:00,27.1,26.6,29.72,ENE,61,0.0,0.0,98,0.02,,OVC047,0.21,VWS V12.08,2013-03-19 21:30:00,
2013-03-19 17:34:00,27.0,26.5,29.72,ENE,61,0.0,0.0,98,0.02,,OVC020,0.21,VWS V12.08,2013-03-19 21:34:00,
2013-03-19 17:39:00,27.0,26.5,29.72,ENE,61,0.0,0.0,98,0.02,,OVC020,0.21,VWS V12.08,2013-03-19 21:39:00,
2013-03-19 17:40:00,27.0,26.5,29.72,ENE,61,0.0,0.0,98,0.02,,OVC047,0.21,VWS V12.08,2013-03-19 21:40:00,
2013-03-19 17:44:00,27.0,26.5,29.73,ENE,61,0.0,0.0,98,0.02,,OVC020,0.21,VWS V12.08,2013-03-19 21:44:00,
2013-03-19 17:49:00,27.0,26.5,29.73,ENE,61,0.0,0.0,98,0.03,,OVC020,0.22,VWS V12.08,2013-03-19 21:49:00,
2013-03-19 17:50:00,27.0,26.5,29.73,ENE,61,0.0,0.0,98,0.03,,OVC047,0.22,VWS V12.08,2013-03-19 21:50:00,
2013-03-19 17:55:00,27.1,26.6,29.73,ENE,61,0.0,0.0,98,0.02,,OVC020,0.22,VWS V12.08,2013-03-19 21:55:00,
2013-03-19 18:00:00,27.1,26.6,29.73,ENE,61,0.0,0.0,98,0.02,,OVC020,0.22,VWS V12.08,2013-03-19 22:00:00,
2013-03-19 18:05:00,27.1,26.6,29.73,ENE,61,0.0,0.0,98,0.02,,OVC020,0.22,VWS V12.08,2013-03-19 22:05:00,
2013-03-19 18:10:00,27.3,26.8,29.73,ENE,61,0.0,0.0,98,0.02,,OVC020,0.22,VWS V12.08,2013-03-19 22:10:00,
2013-03-19 18:15:00,27.3,26.8,29.73,ENE,61,0.0,0.0,98,0.02,,OVC020,0.22,VWS V12.08,2013-03-19 22:15:00,
2013-03-19 18:20:00,27.3,26.8,29.73,ENE,61,0.0,0.0,98,0.02,,OVC020,0.22,VWS V12.08,2013-03-19 22:20:00,
2013-03-19 18:25:00,27.3,26.8,29.73,ENE,61,0.0,0.0,98,0.02,,OVC020,0.22,VWS V12.08,2013-03-19 22:25:00,
2013-03-19 18:30:00,27.1,26.4,29.74,ENE,61,0.0,0.0,97,0.01,,OVC020,0.22,VWS V12.08,2013-03-19 22:30:00,
2013-03-19 18:35:00,27.1,26.6,29.74,ENE,61,0.0,0.0,98,0.02,,OVC020,0.23,VWS V12.08,2013-03-19 22:35:00,
2013-03-19 18:40:00,27.0,26.3,29.74,ENE,61,0.0,0.0,97,0.02,,OVC020,0.23,VWS V12.08,2013-03-19 22:40:00,
2013-03-19 18:45:00,26.8,26.1,29.74,ENE,61,0.0,0.0,97,0.03,,OVC020,0.24,VWS V12.08,2013-03-19 22:45:00,
2013-03-19 18:50:00,26.5,25.8,29.74,ENE,61,0.0,0.0,97,0.02,,OVC020,0.24,VWS V12.08,2013-03-19 22:50:00,
2013-03-19 18:55:00,26.4,25.7,29.74,ENE,61,0.0,0.0,97,0.03,,OVC020,0.25,VWS V12.08,2013-03-19 22:55:00,
2013-03-19 19:00:00,26.4,25.7,29.74,ENE,61,0.0,0.0,97,0.03,,OVC020,0.25,VWS V12.08,2013-03-19 23:00:00,
2013-03-19 19:05:00,26.4,25.9,29.74,ENE,61,0.0,0.0,98,0.03,,OVC020,0.25,VWS V12.08,2013-03-19 23:05:00,
2013-03-19 19:10:00,26.2,25.7,29.74,ENE,61,0.0,0.0,98,0.04,,OVC020,0.26,VWS V12.08,2013-03-19 23:10:00,
2013-03-19 19:15:00,26.2,25.7,29.74,ENE,61,0.0,0.0,98,0.04,,OVC020,0.26,VWS V12.08,2013-03-19 23:15:00,
2013-03-19 19:20:00,26.2,25.7,29.74,ENE,61,0.0,0.0,98,0.04,,OVC020,0.26,VWS V12.08,2013-03-19 23:20:00,
2013-03-19 19:25:00,26.2,25.7,29.74,ENE,61,0.0,0.0,98,0.05,,OVC020,0.27,VWS V12.08,2013-03-19 23:25:00,
2013-03-19 19:30:00,26.1,25.4,29.74,ENE,61,0.0,0.0,97,0.05,,OVC020,0.27,VWS V12.08,2013-03-19 23:30:00,
2013-03-19 19:35:00,25.9,25.4,29.74,ENE,59,0.0,0.0,98,0.05,,OVC020,0.27,VWS V12.08,2013-03-19 23:35:00,
2013-03-19 19:40:00,25.8,25.1,29.74,ENE,61,0.0,0.0,97,0.04,,OVC020,0.27,VWS V12.08,2013-03-19 23:40:00,
2013-03-19 19:45:00,25.8,25.1,29.74,ENE,59,0.0,0.0,97,0.05,,OVC020,0.28,VWS V12.08,2013-03-19 23:45:00,
2013-03-19 19:50:00,25.6,24.9,29.74,ENE,59,0.0,0.0,97,0.04,,OVC020,0.28,VWS V12.08,2013-03-19 23:50:00,
2013-03-19 19:55:00,25.6,24.9,29.74,ENE,61,0.0,0.0,97,0.04,,OVC020,0.28,VWS V12.08,2013-03-19 23:55:00,
2013-03-19 20:00:00,25.5,24.8,29.75,ENE,61,0.0,0.0,97,0.03,,OVC020,0.28,VWS V12.08,2013-03-20 00:00:00,
2013-03-19 20:05:00,25.2,24.5,29.75,ENE,61,0.0,0.0,97,0.03,,OVC020,0.28,VWS V12.08,2013-03-20 00:05:00,
2013-03-19 20:10:00,25.0,24.3,29.75,ENE,61,0.0,0.0,97,0.04,,OVC020,0.29,VWS V12.08,2013-03-20 00:10:00,
2013-03-19 20:15:00,24.6,23.9,29.75,ENE,59,0.0,0.0,97,0.04,,OVC020,0.29,VWS V12.08,2013-03-20 00:15:00,
2013-03-19 20:20:00,24.4,23.7,29.75,ENE,64,0.0,0.0,97,0.03,,OVC020,0.29,VWS V12.08,2013-03-20 00:20:00,
2013-03-19 20:25:00,24.0,23.3,29.75,ENE,78,5.0,5.0,97,0.03,,OVC020,0.29,VWS V12.08,2013-03-20 00:25:00,
2013-03-19 20:30:00,23.8,23.1,29.75,East,86,0.0,2.0,97,0.02,,OVC020,0.29,VWS V12.08,2013-03-20 00:30:00,
2013-03-19 20:35:00,23.6,22.9,29.75,NE,56,2.0,3.0,97,0.02,,OVC020,0.29,VWS V12.08,2013-03-20 00:35:00,
2013-03-19 20:40:00,23.6,22.9,29.75,East,82,2.0,2.0,97,0.02,,OVC020,0.29,VWS V12.08,2013-03-20 00:40:00,
2013-03-19 20:45:00,23.4,22.7,29.75,ENE,68,2.0,2.0,97,0.02,,OVC020,0.29,VWS V12.08,2013-03-20 00:45:00,
2013-03-19 20:50:00,23.3,22.8,29.75,ENE,65,1.0,2.0,98,0.01,,OVC020,0.29,VWS V12.08,2013-03-20 00:50:00,
2013-03-19 20:55:00,23.3,22.8,29.75,NE,52,2.0,3.0,98,0.02,,OVC020,0.30,VWS V12.08,2013-03-20 00:55:00,
2013-03-19 21:00:00,23.1,22.6,29.75,NE,49,1.0,2.0,98,0.02,,OVC020,0.30,VWS V12.08,2013-03-20 01:00:00,
2013-03-19 21:06:00,23.0,22.5,29.75,NE,34,1.0,3.0,98,0.02,,OVC020,0.30,VWS V12.08,2013-03-20 01:06:00,
2013-03-19 21:10:00,23.0,22.5,29.75,NE,44,1.0,3.0,98,0.02,,OVC047,0.30,VWS V12.08,2013-03-20 01:10:00,
2013-03-19 21:11:00,22.8,22.3,29.75,NE,45,0.0,2.0,98,0.02,,OVC020,0.30,VWS V12.08,2013-03-20 01:11:00,
2013-03-19 21:16:00,22.7,22.0,29.75,ENE,61,3.0,3.0,97,0.02,,OVC020,0.30,VWS V12.08,2013-03-20 01:16:00,
2013-03-19 21:20:00,22.7,22.0,29.75,ENE,69,0.0,2.0,97,0.02,,OVC047,0.30,VWS V12.08,2013-03-20 01:20:00,
2013-03-19 21:21:00,22.5,21.8,29.75,NE,44,2.0,4.0,97,0.01,,OVC020,0.30,VWS V12.08,2013-03-20 01:21:00,
2013-03-19 21:26:00,22.5,21.8,29.75,NE,44,0.0,0.0,97,0.01,,OVC020,0.30,VWS V12.08,2013-03-20 01:26:00,
2013-03-19 21:30:00,22.5,21.8,29.75,NE,44,0.0,1.0,97,0.01,,OVC047,0.30,VWS V12.08,2013-03-20 01:30:00,
2013-03-19 21:31:00,22.5,22.0,29.75,NE,44,2.0,2.0,98,0.01,,OVC020,0.30,VWS V12.08,2013-03-20 01:31:00,
2013-03-19 21:36:00,22.5,21.8,29.75,NE,51,0.0,3.0,97,0.01,,OVC020,0.30,VWS V12.08,2013-03-20 01:36:00,
2013-03-19 21:40:00,22.4,21.7,29.75,NE,51,0.0,1.0,97,0.01,,OVC047,0.30,VWS V12.08,2013-03-20 01:40:00,
2013-03-19 21:41:00,22.4,21.7,29.75,NE,49,1.0,2.0,97,0.01,,OVC020,0.30,VWS V12.08,2013-03-20 01:41:00,
2013-03-19 21:46:00,22.4,21.7,29.76,NNE,28,3.0,3.0,97,0.02,,OVC020,0.31,VWS V12.08,2013-03-20 01:46:00,
2013-03-19 21:50:00,22.4,21.7,29.76,NE,42,0.0,0.0,97,0.02,,OVC047,0.31,VWS V12.08,2013-03-20 01:50:00,
2013-03-19 21:51:00,22.4,21.7,29.76,NE,55,0.0,3.0,97,0.02,,OVC020,0.31,VWS V12.08,2013-03-20 01:51:00,
2013-03-19 21:56:00,22.2,21.5,29.76,NE,52,1.0,1.0,97,0.02,,OVC020,0.31,VWS V12.08,2013-03-20 01:56:00,
2013-03-19 22:00:00,22.2,21.5,29.75,NE,56,1.0,2.0,97,0.02,,OVC047,0.31,VWS V12.08,2013-03-20 02:00:00,
2013-03-19 22:01:00,22.1,21.4,29.75,NE,45,2.0,3.0,97,0.01,,OVC020,0.31,VWS V12.08,2013-03-20 02:01:00,
2013-03-19 22:06:00,22.1,21.4,29.75,ENE,78,1.0,3.0,97,0.01,,OVC020,0.31,VWS V12.08,2013-03-20 02:06:00,
2013-03-19 22:10:00,21.9,21.2,29.75,NE,51,0.0,2.0,97,0.01,,OVC047,0.31,VWS V12.08,2013-03-20 02:10:00,
2013-03-19 22:11:00,21.9,21.2,29.75,NNE,30,4.0,4.0,97,0.01,,OVC020,0.31,VWS V12.08,2013-03-20 02:11:00,
2013-03-19 22:16:00,21.9,21.2,29.75,ENE,75,3.0,7.0,97,0.01,,OVC020,0.31,VWS V12.08,2013-03-20 02:16:00,
2013-03-19 22:20:00,21.9,21.2,29.75,NE,38,0.0,2.0,97,0.01,,OVC047,0.31,VWS V12.08,2013-03-20 02:20:00,
2013-03-19 22:21:00,21.8,21.1,29.75,NE,41,3.0,3.0,97,0.02,,OVC020,0.32,VWS V12.08,2013-03-20 02:21:00,
2013-03-19 22:26:00,21.8,21.1,29.75,NE,55,0.0,0.0,97,0.02,,OVC020,0.32,VWS V12.08,2013-03-20 02:26:00,
2013-03-19 22:30:00,21.8,21.1,29.75,NE,40,0.0,0.0,97,0.02,,OVC047,0.32,VWS V12.08,2013-03-20 02:30:00,
2013-03-19 22:31:00,21.6,20.9,29.75,NE,34,0.0,0.0,97,0.02,,OVC020,0.32,VWS V12.08,2013-03-20 02:31:00,
2013-03-19 22:37:00,21.6,20.9,29.75,NE,37,0.0,0.0,97,0.02,,OVC020,0.32,VWS V12.08,2013-03-20 02:37:00,
2013-03-19 22:40:00,21.6,20.9,29.75,NE,37,0.0,0.0,97,0.02,,OVC047,0.32,VWS V12.08,2013-03-20 02:40:00,
2013-03-19 22:42:00,21.6,20.9,29.75,NE,35,0.0,0.0,97,0.02,,OVC020,0.32,VWS V12.08,2013-03-20 02:42:00,
2013-03-19 22:47:00,21.6,20.9,29.75,NE,37,0.0,0.0,97,0.03,,OVC020,0.33,VWS V12.08,2013-03-20 02:47:00,
2013-03-19 22:50:00,21.5,20.8,29.75,NE,37,0.0,0.0,97,0.03,,OVC047,0.33,VWS V12.08,2013-03-20 02:50:00,
2013-03-19 22:52:00,21.5,21.0,29.75,NE,35,0.0,0.0,98,0.02,,OVC020,0.33,VWS V12.08,2013-03-20 02:52:00,
2013-03-19 22:57:00,21.5,21.0,29.75,NE,38,0.0,0.0,98,0.02,,OVC020,0.33,VWS V12.08,2013-03-20 02:57:00,
2013-03-19 23:00:00,21.5,21.0,29.75,NE,38,0.0,0.0,98,0.02,,OVC047,0.33,VWS V12.08,2013-03-20 03:00:00,
2013-03-19 23:02:00,21.5,21.0,29.75,NE,38,0.0,0.0,98,0.02,,OVC020,0.33,VWS V12.08,2013-03-20 03:02:00,
2013-03-19 23:07:00,21.5,21.0,29.75,NE,37,0.0,0.0,98,0.02,,OVC020,0.33,VWS V12.08,2013-03-20 03:07:00,
2013-03-19 23:10:00,21.5,21.0,29.75,NE,38,0.0,0.0,98,0.02,,OVC047,0.33,VWS V12.08,2013-03-20 03:10:00,
2013-03-19 23:12:00,21.5,21.0,29.75,NNE,31,0.0,0.0,98,0.02,,OVC020,0.33,VWS V12.08,2013-03-20 03:12:00,
2013-03-19 23:18:00,21.5,21.0,29.74,NE,51,0.0,0.0,98,0.02,,OVC020,0.33,VWS V12.08,2013-03-20 03:18:00,
2013-03-19 23:20:00,21.5,21.0,29.74,NE,49,0.0,0.0,98,0.03,,OVC047,0.34,VWS V12.08,2013-03-20 03:20:00,
2013-03-19 23:23:00,21.5,21.0,29.74,NE,51,0.0,0.0,98,0.03,,OVC020,0.34,VWS V12.08,2013-03-20 03:23:00,
2013-03-19 23:28:00,21.5,21.0,29.74,NE,51,0.0,0.0,98,0.03,,OVC020,0.34,VWS V12.08,2013-03-20 03:28:00,
2013-03-19 23:30:00,21.5,21.0,29.74,NE,51,0.0,0.0,98,0.03,,OVC047,0.34,VWS V12.08,2013-03-20 03:30:00,
2013-03-19 23:33:00,21.5,21.0,29.74,NE,51,0.0,0.0,98,0.02,,OVC020,0.34,VWS V12.08,2013-03-20 03:33:00,
2013-03-19 23:38:00,21.5,21.0,29.74,NE,51,0.0,0.0,98,0.02,,OVC020,0.34,VWS V12.08,2013-03-20 03:38:00,
2013-03-19 23:40:00,21.5,21.0,29.74,NE,51,0.0,0.0,98,0.02,,OVC047,0.34,VWS V12.08,2013-03-20 03:40:00,
2013-03-19 23:43:00,21.5,21.0,29.73,NE,51,0.0,0.0,98,0.02,,OVC020,0.34,VWS V12.08,2013-03-20 03:43:00,
2013-03-19 23:48:00,21.5,21.0,29.73,NE,51,0.0,0.0,98,0.02,,OVC020,0.34,VWS V12.08,2013-03-20 03:48:00,
2013-03-19 23:50:00,21.5,21.0,29.73,NE,51,0.0,0.0,98,0.02,,OVC047,0.34,VWS V12.08,2013-03-20 03:50:00,
2013-03-19 23:53:00,21.5,21.0,29.73,NE,51,0.0,0.0,98,0.01,,OVC020,0.34,VWS V12.08,2013-03-20 03:53:00,
2013-03-19 23:58:00,21.5,21.0,29.73,NE,51,0.0,0.0,98,0.01,,OVC020,0.34,VWS V12.08,2013-03-20 03:58:00,